sensor_id;sensor_type;location;lat;lon;timestamp;temperature;humidity
6581;DHT22;3324;50.796;7.228;2022-07-23T00:01:30;19.40;99.90
6581;DHT22;3324;50.796;7.228;2022-07-23T00:03:56;19.40;99.90
6581;DHT22;3324;50.796;7.228;2022-07-23T00:06:23;19.30;99.90
6581;DHT22;3324;50.796;7.228;2022-07-23T00:08:49;19.30;99.90
6581;DHT22;3324;50.796;7.228;2022-07-23T00:11:15;19.30;99.90
6581;DHT22;3324;50.796;7.228;2022-07-23T00:13:41;19.20;99.90
6581;DHT22;3324;50.796;7.228;2022-07-23T00:16:07;19.20;99.90
6581;DHT22;3324;50.796;7.228;2022-07-23T00:18:33;19.20;99.90
6581;DHT22;3324;50.796;7.228;2022-07-23T00:20:58;19.20;99.90
6581;DHT22;3324;50.796;7.228;2022-07-23T00:23:24;19.20;99.90
6581;DHT22;3324;50.796;7.228;2022-07-23T00:25:51;19.20;99.90
6581;DHT22;3324;50.796;7.228;2022-07-23T00:28:17;19.20;99.90
6581;DHT22;3324;50.796;7.228;2022-07-23T00:30:44;19.20;99.90
6581;DHT22;3324;50.796;7.228;2022-07-23T00:33:10;19.30;99.90
6581;DHT22;3324;50.796;7.228;2022-07-23T00:35:38;19.40;99.90
6581;DHT22;3324;50.796;7.228;2022-07-23T00:38:07;19.30;99.90
6581;DHT22;3324;50.796;7.228;2022-07-23T00:40:35;19.30;99.90
6581;DHT22;3324;50.796;7.228;2022-07-23T00:43:01;19.30;99.90
6581;DHT22;3324;50.796;7.228;2022-07-23T00:45:27;19.30;99.90
6581;DHT22;3324;50.796;7.228;2022-07-23T00:47:52;19.20;99.90
6581;DHT22;3324;50.796;7.228;2022-07-23T00:50:18;19.20;99.90
6581;DHT22;3324;50.796;7.228;2022-07-23T00:52:44;19.20;99.90
6581;DHT22;3324;50.796;7.228;2022-07-23T00:55:11;19.20;99.90
6581;DHT22;3324;50.796;7.228;2022-07-23T00:57:38;19.10;99.90
6581;DHT22;3324;50.796;7.228;2022-07-23T01:00:06;19.20;99.90
6581;DHT22;3324;50.796;7.228;2022-07-23T01:02:34;19.10;99.90
6581;DHT22;3324;50.796;7.228;2022-07-23T01:05:00;19.10;99.90
6581;DHT22;3324;50.796;7.228;2022-07-23T01:07:26;19.10;99.90
6581;DHT22;3324;50.796;7.228;2022-07-23T01:09:52;19.10;99.90
6581;DHT22;3324;50.796;7.228;2022-07-23T01:12:18;19.10;99.90
6581;DHT22;3324;50.796;7.228;2022-07-23T01:14:43;19.10;99.90
6581;DHT22;3324;50.796;7.228;2022-07-23T01:17:09;19.10;99.90
6581;DHT22;3324;50.796;7.228;2022-07-23T01:19:35;19.10;99.90
6581;DHT22;3324;50.796;7.228;2022-07-23T01:22:03;19.10;99.90
6581;DHT22;3324;50.796;7.228;2022-07-23T01:24:30;19.20;99.90
6581;DHT22;3324;50.796;7.228;2022-07-23T01:26:56;19.10;99.90
6581;DHT22;3324;50.796;7.228;2022-07-23T01:29:21;19.00;99.90
6581;DHT22;3324;50.796;7.228;2022-07-23T01:31:47;19.00;99.90
6581;DHT22;3324;50.796;7.228;2022-07-23T01:34:13;19.00;99.90
6581;DHT22;3324;50.796;7.228;2022-07-23T01:36:39;18.90;99.90
6581;DHT22;3324;50.796;7.228;2022-07-23T01:39:06;18.90;99.90
6581;DHT22;3324;50.796;7.228;2022-07-23T01:41:32;18.90;99.90
6581;DHT22;3324;50.796;7.228;2022-07-23T01:43:58;18.90;99.90
6581;DHT22;3324;50.796;7.228;2022-07-23T01:46:23;18.90;99.90
6581;DHT22;3324;50.796;7.228;2022-07-23T01:48:49;18.90;99.90
6581;DHT22;3324;50.796;7.228;2022-07-23T01:51:15;18.90;99.90
6581;DHT22;3324;50.796;7.228;2022-07-23T01:53:40;18.90;99.90
6581;DHT22;3324;50.796;7.228;2022-07-23T01:56:06;18.90;99.90
6581;DHT22;3324;50.796;7.228;2022-07-23T01:58:32;18.90;99.90
6581;DHT22;3324;50.796;7.228;2022-07-23T02:00:58;18.90;99.90
6581;DHT22;3324;50.796;7.228;2022-07-23T02:03:24;18.90;99.90
6581;DHT22;3324;50.796;7.228;2022-07-23T02:05:50;18.90;99.90
6581;DHT22;3324;50.796;7.228;2022-07-23T02:08:16;18.90;99.90
6581;DHT22;3324;50.796;7.228;2022-07-23T02:10:42;19.00;99.90
6581;DHT22;3324;50.796;7.228;2022-07-23T02:13:07;19.00;99.90
6581;DHT22;3324;50.796;7.228;2022-07-23T02:15:33;18.90;99.90
6581;DHT22;3324;50.796;7.228;2022-07-23T02:17:59;18.90;99.90
6581;DHT22;3324;50.796;7.228;2022-07-23T02:20:25;18.90;99.90
6581;DHT22;3324;50.796;7.228;2022-07-23T02:22:51;19.00;99.90
6581;DHT22;3324;50.796;7.228;2022-07-23T02:25:17;19.00;99.90
6581;DHT22;3324;50.796;7.228;2022-07-23T02:27:42;18.90;99.90
6581;DHT22;3324;50.796;7.228;2022-07-23T02:30:08;18.90;99.90
6581;DHT22;3324;50.796;7.228;2022-07-23T02:32:35;18.90;99.90
6581;DHT22;3324;50.796;7.228;2022-07-23T02:35:01;18.80;99.90
6581;DHT22;3324;50.796;7.228;2022-07-23T02:37:27;18.90;99.90
6581;DHT22;3324;50.796;7.228;2022-07-23T02:39:52;19.00;99.90
6581;DHT22;3324;50.796;7.228;2022-07-23T02:42:18;18.90;99.90
6581;DHT22;3324;50.796;7.228;2022-07-23T02:44:44;18.90;99.90
6581;DHT22;3324;50.796;7.228;2022-07-23T02:47:09;18.80;99.90
6581;DHT22;3324;50.796;7.228;2022-07-23T02:49:35;18.80;99.90
6581;DHT22;3324;50.796;7.228;2022-07-23T02:52:00;18.90;99.90
6581;DHT22;3324;50.796;7.228;2022-07-23T02:54:26;18.90;99.90
6581;DHT22;3324;50.796;7.228;2022-07-23T02:56:53;18.90;99.90
6581;DHT22;3324;50.796;7.228;2022-07-23T02:59:19;18.80;99.90
6581;DHT22;3324;50.796;7.228;2022-07-23T03:01:45;18.80;99.90
6581;DHT22;3324;50.796;7.228;2022-07-23T03:04:11;18.80;99.90
6581;DHT22;3324;50.796;7.228;2022-07-23T03:06:37;18.80;99.90
6581;DHT22;3324;50.796;7.228;2022-07-23T03:09:03;18.80;99.90
6581;DHT22;3324;50.796;7.228;2022-07-23T03:11:29;18.80;99.90
6581;DHT22;3324;50.796;7.228;2022-07-23T03:13:55;18.70;99.90
6581;DHT22;3324;50.796;7.228;2022-07-23T03:16:20;18.60;99.90
6581;DHT22;3324;50.796;7.228;2022-07-23T03:18:46;18.70;99.90
6581;DHT22;3324;50.796;7.228;2022-07-23T03:21:12;18.60;99.90
6581;DHT22;3324;50.796;7.228;2022-07-23T03:23:38;18.60;99.90
6581;DHT22;3324;50.796;7.228;2022-07-23T03:26:04;18.60;99.90
6581;DHT22;3324;50.796;7.228;2022-07-23T03:28:29;18.60;99.90
6581;DHT22;3324;50.796;7.228;2022-07-23T03:30:55;18.60;99.90
6581;DHT22;3324;50.796;7.228;2022-07-23T03:33:21;18.50;99.90
6581;DHT22;3324;50.796;7.228;2022-07-23T03:35:47;18.50;99.90
6581;DHT22;3324;50.796;7.228;2022-07-23T03:38:13;18.60;99.90
6581;DHT22;3324;50.796;7.228;2022-07-23T03:40:39;18.40;99.90
6581;DHT22;3324;50.796;7.228;2022-07-23T03:43:05;18.40;99.90
6581;DHT22;3324;50.796;7.228;2022-07-23T03:45:31;18.30;99.90
6581;DHT22;3324;50.796;7.228;2022-07-23T03:47:57;18.30;99.90
6581;DHT22;3324;50.796;7.228;2022-07-23T03:50:23;18.30;99.90
6581;DHT22;3324;50.796;7.228;2022-07-23T03:52:49;18.30;99.90
6581;DHT22;3324;50.796;7.228;2022-07-23T03:55:14;18.20;99.90
6581;DHT22;3324;50.796;7.228;2022-07-23T03:57:41;18.20;99.90
6581;DHT22;3324;50.796;7.228;2022-07-23T04:00:07;18.20;99.90
6581;DHT22;3324;50.796;7.228;2022-07-23T04:02:38;18.20;99.90
6581;DHT22;3324;50.796;7.228;2022-07-23T04:05:04;18.20;99.90
6581;DHT22;3324;50.796;7.228;2022-07-23T04:07:30;18.20;99.90
6581;DHT22;3324;50.796;7.228;2022-07-23T04:09:56;18.20;99.90
6581;DHT22;3324;50.796;7.228;2022-07-23T04:12:23;18.20;99.90
6581;DHT22;3324;50.796;7.228;2022-07-23T04:14:48;18.20;99.90
6581;DHT22;3324;50.796;7.228;2022-07-23T04:17:14;18.10;99.90
6581;DHT22;3324;50.796;7.228;2022-07-23T04:19:40;18.10;99.90
6581;DHT22;3324;50.796;7.228;2022-07-23T04:22:12;18.10;99.90
6581;DHT22;3324;50.796;7.228;2022-07-23T04:24:38;18.10;99.90
6581;DHT22;3324;50.796;7.228;2022-07-23T04:27:05;18.10;99.90
6581;DHT22;3324;50.796;7.228;2022-07-23T04:29:31;18.10;99.90
6581;DHT22;3324;50.796;7.228;2022-07-23T04:31:56;18.10;99.90
6581;DHT22;3324;50.796;7.228;2022-07-23T04:34:22;18.20;99.90
6581;DHT22;3324;50.796;7.228;2022-07-23T04:36:48;18.20;99.90
6581;DHT22;3324;50.796;7.228;2022-07-23T04:39:14;18.20;99.90
6581;DHT22;3324;50.796;7.228;2022-07-23T04:41:40;18.20;99.90
6581;DHT22;3324;50.796;7.228;2022-07-23T04:44:05;18.20;99.90
6581;DHT22;3324;50.796;7.228;2022-07-23T04:46:31;18.30;99.90
6581;DHT22;3324;50.796;7.228;2022-07-23T04:48:57;18.30;99.90
6581;DHT22;3324;50.796;7.228;2022-07-23T04:51:23;18.30;99.90
6581;DHT22;3324;50.796;7.228;2022-07-23T04:53:49;18.30;99.90
6581;DHT22;3324;50.796;7.228;2022-07-23T04:56:15;18.40;99.90
6581;DHT22;3324;50.796;7.228;2022-07-23T04:58:40;18.40;99.90
6581;DHT22;3324;50.796;7.228;2022-07-23T05:01:06;18.50;99.90
6581;DHT22;3324;50.796;7.228;2022-07-23T05:03:32;18.50;99.90
6581;DHT22;3324;50.796;7.228;2022-07-23T05:05:58;18.60;99.90
6581;DHT22;3324;50.796;7.228;2022-07-23T05:08:23;18.60;99.90
6581;DHT22;3324;50.796;7.228;2022-07-23T05:10:49;18.60;99.90
6581;DHT22;3324;50.796;7.228;2022-07-23T05:13:15;18.70;99.90
6581;DHT22;3324;50.796;7.228;2022-07-23T05:15:42;18.80;99.90
6581;DHT22;3324;50.796;7.228;2022-07-23T05:18:07;18.90;99.90
6581;DHT22;3324;50.796;7.228;2022-07-23T05:20:33;18.90;99.90
6581;DHT22;3324;50.796;7.228;2022-07-23T05:22:59;18.90;99.90
6581;DHT22;3324;50.796;7.228;2022-07-23T05:25:25;19.00;99.90
6581;DHT22;3324;50.796;7.228;2022-07-23T05:27:50;19.10;99.90
6581;DHT22;3324;50.796;7.228;2022-07-23T05:30:16;19.10;99.90
6581;DHT22;3324;50.796;7.228;2022-07-23T05:32:41;19.20;99.90
6581;DHT22;3324;50.796;7.228;2022-07-23T05:35:07;19.30;99.90
6581;DHT22;3324;50.796;7.228;2022-07-23T05:37:33;19.30;99.90
6581;DHT22;3324;50.796;7.228;2022-07-23T05:40:03;19.40;99.90
6581;DHT22;3324;50.796;7.228;2022-07-23T05:42:31;19.50;99.90
6581;DHT22;3324;50.796;7.228;2022-07-23T05:44:57;19.50;99.90
6581;DHT22;3324;50.796;7.228;2022-07-23T05:47:22;19.50;99.90
6581;DHT22;3324;50.796;7.228;2022-07-23T05:49:48;19.60;99.90
6581;DHT22;3324;50.796;7.228;2022-07-23T05:52:14;19.60;99.90
6581;DHT22;3324;50.796;7.228;2022-07-23T05:54:39;19.60;99.90
6581;DHT22;3324;50.796;7.228;2022-07-23T05:57:05;19.50;99.90
6581;DHT22;3324;50.796;7.228;2022-07-23T05:59:31;19.40;99.90
6581;DHT22;3324;50.796;7.228;2022-07-23T06:01:56;19.40;99.90
6581;DHT22;3324;50.796;7.228;2022-07-23T06:04:22;19.50;99.90
6581;DHT22;3324;50.796;7.228;2022-07-23T06:06:47;19.50;99.90
6581;DHT22;3324;50.796;7.228;2022-07-23T06:09:13;19.60;99.90
6581;DHT22;3324;50.796;7.228;2022-07-23T06:11:40;19.70;99.90
6581;DHT22;3324;50.796;7.228;2022-07-23T06:14:06;19.70;99.90
6581;DHT22;3324;50.796;7.228;2022-07-23T06:16:31;19.70;99.90
6581;DHT22;3324;50.796;7.228;2022-07-23T06:18:57;19.70;99.90
6581;DHT22;3324;50.796;7.228;2022-07-23T06:21:22;19.70;99.90
6581;DHT22;3324;50.796;7.228;2022-07-23T06:23:48;19.70;99.90
6581;DHT22;3324;50.796;7.228;2022-07-23T06:26:14;19.70;99.90
6581;DHT22;3324;50.796;7.228;2022-07-23T06:28:40;19.80;99.90
6581;DHT22;3324;50.796;7.228;2022-07-23T06:31:05;19.90;99.90
6581;DHT22;3324;50.796;7.228;2022-07-23T06:33:31;20.00;99.90
6581;DHT22;3324;50.796;7.228;2022-07-23T06:35:57;20.00;99.90
6581;DHT22;3324;50.796;7.228;2022-07-23T06:38:22;20.10;99.90
6581;DHT22;3324;50.796;7.228;2022-07-23T06:40:48;20.10;99.90
6581;DHT22;3324;50.796;7.228;2022-07-23T06:43:13;20.20;99.90
6581;DHT22;3324;50.796;7.228;2022-07-23T06:45:39;20.10;99.90
6581;DHT22;3324;50.796;7.228;2022-07-23T06:48:05;20.20;99.90
6581;DHT22;3324;50.796;7.228;2022-07-23T06:50:32;20.20;99.90
6581;DHT22;3324;50.796;7.228;2022-07-23T06:52:58;20.40;99.90
6581;DHT22;3324;50.796;7.228;2022-07-23T06:55:23;20.50;99.90
6581;DHT22;3324;50.796;7.228;2022-07-23T06:57:49;20.60;99.90
6581;DHT22;3324;50.796;7.228;2022-07-23T07:00:15;20.70;99.90
6581;DHT22;3324;50.796;7.228;2022-07-23T07:02:41;20.80;99.90
6581;DHT22;3324;50.796;7.228;2022-07-23T07:05:06;20.90;99.90
6581;DHT22;3324;50.796;7.228;2022-07-23T07:07:33;21.10;99.90
6581;DHT22;3324;50.796;7.228;2022-07-23T07:09:59;21.20;99.90
6581;DHT22;3324;50.796;7.228;2022-07-23T07:12:24;21.30;99.90
6581;DHT22;3324;50.796;7.228;2022-07-23T07:14:50;21.40;99.90
6581;DHT22;3324;50.796;7.228;2022-07-23T07:17:16;21.50;99.90
6581;DHT22;3324;50.796;7.228;2022-07-23T07:19:42;21.50;99.90
6581;DHT22;3324;50.796;7.228;2022-07-23T07:22:07;21.60;99.90
6581;DHT22;3324;50.796;7.228;2022-07-23T07:24:33;21.60;99.90
6581;DHT22;3324;50.796;7.228;2022-07-23T07:26:58;21.60;99.90
6581;DHT22;3324;50.796;7.228;2022-07-23T07:29:24;21.80;99.90
6581;DHT22;3324;50.796;7.228;2022-07-23T07:31:49;21.70;99.90
6581;DHT22;3324;50.796;7.228;2022-07-23T07:34:15;21.80;99.90
6581;DHT22;3324;50.796;7.228;2022-07-23T07:36:41;21.90;99.90
6581;DHT22;3324;50.796;7.228;2022-07-23T07:39:08;21.90;99.90
6581;DHT22;3324;50.796;7.228;2022-07-23T07:41:35;22.00;99.90
6581;DHT22;3324;50.796;7.228;2022-07-23T07:44:01;22.10;99.90
6581;DHT22;3324;50.796;7.228;2022-07-23T07:46:27;22.20;99.90
6581;DHT22;3324;50.796;7.228;2022-07-23T07:48:53;22.30;99.90
6581;DHT22;3324;50.796;7.228;2022-07-23T07:51:19;22.40;99.90
6581;DHT22;3324;50.796;7.228;2022-07-23T07:53:44;22.50;99.90
6581;DHT22;3324;50.796;7.228;2022-07-23T07:56:10;22.60;99.90
6581;DHT22;3324;50.796;7.228;2022-07-23T07:58:35;22.60;99.90
6581;DHT22;3324;50.796;7.228;2022-07-23T08:01:01;22.70;99.90
6581;DHT22;3324;50.796;7.228;2022-07-23T08:03:27;22.80;99.90
6581;DHT22;3324;50.796;7.228;2022-07-23T08:05:53;22.90;99.90
6581;DHT22;3324;50.796;7.228;2022-07-23T08:08:19;23.00;99.90
6581;DHT22;3324;50.796;7.228;2022-07-23T08:10:44;23.10;99.90
6581;DHT22;3324;50.796;7.228;2022-07-23T08:13:13;23.20;99.90
6581;DHT22;3324;50.796;7.228;2022-07-23T08:15:43;23.20;99.90
6581;DHT22;3324;50.796;7.228;2022-07-23T08:18:09;23.30;99.90
6581;DHT22;3324;50.796;7.228;2022-07-23T08:20:35;23.50;99.90
6581;DHT22;3324;50.796;7.228;2022-07-23T08:23:05;23.50;99.90
6581;DHT22;3324;50.796;7.228;2022-07-23T08:25:41;23.50;99.90
6581;DHT22;3324;50.796;7.228;2022-07-23T08:28:09;23.70;99.90
6581;DHT22;3324;50.796;7.228;2022-07-23T08:30:36;23.70;99.90
6581;DHT22;3324;50.796;7.228;2022-07-23T08:33:05;23.80;99.90
6581;DHT22;3324;50.796;7.228;2022-07-23T08:35:35;24.00;99.90
6581;DHT22;3324;50.796;7.228;2022-07-23T08:38:03;24.10;99.90
6581;DHT22;3324;50.796;7.228;2022-07-23T08:40:31;24.20;99.90
6581;DHT22;3324;50.796;7.228;2022-07-23T08:42:57;24.20;99.90
6581;DHT22;3324;50.796;7.228;2022-07-23T08:45:25;24.20;99.90
6581;DHT22;3324;50.796;7.228;2022-07-23T08:47:53;24.20;99.90
6581;DHT22;3324;50.796;7.228;2022-07-23T08:50:20;24.20;99.90
6581;DHT22;3324;50.796;7.228;2022-07-23T08:52:47;24.30;99.90
6581;DHT22;3324;50.796;7.228;2022-07-23T08:55:13;24.30;99.90
6581;DHT22;3324;50.796;7.228;2022-07-23T08:57:40;24.40;99.90
6581;DHT22;3324;50.796;7.228;2022-07-23T09:00:06;24.50;99.90
6581;DHT22;3324;50.796;7.228;2022-07-23T09:02:39;24.70;99.90
6581;DHT22;3324;50.796;7.228;2022-07-23T09:05:05;24.80;99.90
6581;DHT22;3324;50.796;7.228;2022-07-23T09:07:32;24.90;99.90
6581;DHT22;3324;50.796;7.228;2022-07-23T09:10:08;24.90;99.90
6581;DHT22;3324;50.796;7.228;2022-07-23T09:12:34;25.00;99.90
6581;DHT22;3324;50.796;7.228;2022-07-23T09:15:08;25.00;99.90
6581;DHT22;3324;50.796;7.228;2022-07-23T09:17:41;25.00;99.90
6581;DHT22;3324;50.796;7.228;2022-07-23T09:20:12;25.10;99.90
6581;DHT22;3324;50.796;7.228;2022-07-23T09:22:44;25.10;99.90
6581;DHT22;3324;50.796;7.228;2022-07-23T09:25:14;25.10;99.90
6581;DHT22;3324;50.796;7.228;2022-07-23T09:27:53;25.20;99.90
6581;DHT22;3324;50.796;7.228;2022-07-23T09:30:21;25.30;99.90
6581;DHT22;3324;50.796;7.228;2022-07-23T09:33:08;25.40;99.90
6581;DHT22;3324;50.796;7.228;2022-07-23T09:35:53;25.40;99.90
6581;DHT22;3324;50.796;7.228;2022-07-23T09:38:21;25.50;99.90
6581;DHT22;3324;50.796;7.228;2022-07-23T09:40:47;25.70;99.90
6581;DHT22;3324;50.796;7.228;2022-07-23T09:43:31;25.80;99.90
6581;DHT22;3324;50.796;7.228;2022-07-23T09:46:20;25.90;99.90
6581;DHT22;3324;50.796;7.228;2022-07-23T09:48:47;26.00;99.90
6581;DHT22;3324;50.796;7.228;2022-07-23T09:51:13;26.00;99.90
6581;DHT22;3324;50.796;7.228;2022-07-23T09:53:42;26.00;99.90
6581;DHT22;3324;50.796;7.228;2022-07-23T09:56:08;26.20;99.90
6581;DHT22;3324;50.796;7.228;2022-07-23T09:58:36;26.20;99.90
6581;DHT22;3324;50.796;7.228;2022-07-23T10:01:10;26.40;99.90
6581;DHT22;3324;50.796;7.228;2022-07-23T10:03:36;26.50;99.90
6581;DHT22;3324;50.796;7.228;2022-07-23T10:06:02;26.60;99.90
6581;DHT22;3324;50.796;7.228;2022-07-23T10:08:28;26.60;99.90
6581;DHT22;3324;50.796;7.228;2022-07-23T10:10:55;26.80;99.90
6581;DHT22;3324;50.796;7.228;2022-07-23T10:13:21;26.70;99.90
6581;DHT22;3324;50.796;7.228;2022-07-23T10:15:50;26.70;99.90
6581;DHT22;3324;50.796;7.228;2022-07-23T10:18:16;26.70;99.90
6581;DHT22;3324;50.796;7.228;2022-07-23T10:20:42;26.70;99.90
6581;DHT22;3324;50.796;7.228;2022-07-23T10:23:42;26.90;99.90
6581;DHT22;3324;50.796;7.228;2022-07-23T10:26:19;27.00;99.90
6581;DHT22;3324;50.796;7.228;2022-07-23T10:29:11;27.10;99.90
6581;DHT22;3324;50.796;7.228;2022-07-23T10:31:50;27.10;99.90
6581;DHT22;3324;50.796;7.228;2022-07-23T10:37:07;27.40;99.90
6581;DHT22;3324;50.796;7.228;2022-07-23T10:39:37;27.50;99.90
6581;DHT22;3324;50.796;7.228;2022-07-23T10:42:14;27.60;99.90
6581;DHT22;3324;50.796;7.228;2022-07-23T10:44:44;27.70;99.90
6581;DHT22;3324;50.796;7.228;2022-07-23T10:47:12;27.70;99.90
6581;DHT22;3324;50.796;7.228;2022-07-23T10:49:43;27.70;99.90
6581;DHT22;3324;50.796;7.228;2022-07-23T10:52:17;27.60;99.90
6581;DHT22;3324;50.796;7.228;2022-07-23T10:54:45;27.70;99.90
6581;DHT22;3324;50.796;7.228;2022-07-23T10:57:11;27.80;99.90
6581;DHT22;3324;50.796;7.228;2022-07-23T11:02:32;27.90;97.60
6581;DHT22;3324;50.796;7.228;2022-07-23T11:05:05;28.00;98.00
6581;DHT22;3324;50.796;7.228;2022-07-23T11:07:31;28.00;96.40
6581;DHT22;3324;50.796;7.228;2022-07-23T11:09:56;28.00;97.40
6581;DHT22;3324;50.796;7.228;2022-07-23T11:17:29;28.00;96.20
6581;DHT22;3324;50.796;7.228;2022-07-23T11:25:13;28.30;95.30
6581;DHT22;3324;50.796;7.228;2022-07-23T11:27:44;28.30;95.00
6581;DHT22;3324;50.796;7.228;2022-07-23T11:30:36;28.40;94.20
6581;DHT22;3324;50.796;7.228;2022-07-23T11:35:41;28.50;92.70
6581;DHT22;3324;50.796;7.228;2022-07-23T11:38:10;28.50;91.70
6581;DHT22;3324;50.796;7.228;2022-07-23T11:40:38;28.40;95.90
6581;DHT22;3324;50.796;7.228;2022-07-23T11:43:09;28.50;96.00
6581;DHT22;3324;50.796;7.228;2022-07-23T11:45:36;28.60;93.30
6581;DHT22;3324;50.796;7.228;2022-07-23T11:48:03;28.60;94.80
6581;DHT22;3324;50.796;7.228;2022-07-23T11:50:29;28.70;92.90
6581;DHT22;3324;50.796;7.228;2022-07-23T11:52:55;28.70;91.40
6581;DHT22;3324;50.796;7.228;2022-07-23T11:55:22;28.60;88.70
6581;DHT22;3324;50.796;7.228;2022-07-23T11:57:47;28.60;91.60
6581;DHT22;3324;50.796;7.228;2022-07-23T12:00:22;28.60;91.60
6581;DHT22;3324;50.796;7.228;2022-07-23T12:02:53;28.70;91.00
6581;DHT22;3324;50.796;7.228;2022-07-23T12:05:24;28.70;90.90
6581;DHT22;3324;50.796;7.228;2022-07-23T12:07:51;28.80;90.80
6581;DHT22;3324;50.796;7.228;2022-07-23T12:10:40;28.80;89.90
6581;DHT22;3324;50.796;7.228;2022-07-23T12:13:15;28.60;90.90
6581;DHT22;3324;50.796;7.228;2022-07-23T12:15:46;28.60;87.00
6581;DHT22;3324;50.796;7.228;2022-07-23T12:18:16;28.60;88.50
6581;DHT22;3324;50.796;7.228;2022-07-23T12:20:44;28.80;85.70
6581;DHT22;3324;50.796;7.228;2022-07-23T12:23:12;28.80;90.00
6581;DHT22;3324;50.796;7.228;2022-07-23T12:25:41;28.90;86.80
6581;DHT22;3324;50.796;7.228;2022-07-23T12:28:18;29.00;87.80
6581;DHT22;3324;50.796;7.228;2022-07-23T12:33:13;29.00;84.00
6581;DHT22;3324;50.796;7.228;2022-07-23T12:35:43;28.90;88.90
6581;DHT22;3324;50.796;7.228;2022-07-23T12:38:15;28.90;89.40
6581;DHT22;3324;50.796;7.228;2022-07-23T12:40:46;29.00;89.00
6581;DHT22;3324;50.796;7.228;2022-07-23T12:43:29;28.90;82.10
6581;DHT22;3324;50.796;7.228;2022-07-23T12:46:02;28.80;90.50
6581;DHT22;3324;50.796;7.228;2022-07-23T12:48:32;29.00;89.10
6581;DHT22;3324;50.796;7.228;2022-07-23T12:51:12;29.00;85.30
6581;DHT22;3324;50.796;7.228;2022-07-23T13:01:06;29.20;82.40
6581;DHT22;3324;50.796;7.228;2022-07-23T13:03:41;29.20;87.00
6581;DHT22;3324;50.796;7.228;2022-07-23T13:06:11;29.20;83.60
6581;DHT22;3324;50.796;7.228;2022-07-23T13:08:38;29.30;84.60
6581;DHT22;3324;50.796;7.228;2022-07-23T13:11:05;29.30;85.30
6581;DHT22;3324;50.796;7.228;2022-07-23T13:13:34;29.40;81.30
6581;DHT22;3324;50.796;7.228;2022-07-23T13:16:01;29.50;83.40
6581;DHT22;3324;50.796;7.228;2022-07-23T13:18:28;29.50;79.80
6581;DHT22;3324;50.796;7.228;2022-07-23T13:20:54;29.50;82.60
6581;DHT22;3324;50.796;7.228;2022-07-23T13:23:20;29.60;83.60
6581;DHT22;3324;50.796;7.228;2022-07-23T13:25:46;29.60;83.00
6581;DHT22;3324;50.796;7.228;2022-07-23T13:28:13;29.50;82.30
6581;DHT22;3324;50.796;7.228;2022-07-23T13:30:40;29.30;84.50
6581;DHT22;3324;50.796;7.228;2022-07-23T13:33:06;29.30;81.00
6581;DHT22;3324;50.796;7.228;2022-07-23T13:35:34;29.20;83.10
6581;DHT22;3324;50.796;7.228;2022-07-23T13:38:01;29.10;87.00
6581;DHT22;3324;50.796;7.228;2022-07-23T13:40:27;29.00;84.20
6581;DHT22;3324;50.796;7.228;2022-07-23T13:42:53;29.00;84.10
6581;DHT22;3324;50.796;7.228;2022-07-23T13:45:19;29.10;82.10
6581;DHT22;3324;50.796;7.228;2022-07-23T13:47:45;29.20;82.00
6581;DHT22;3324;50.796;7.228;2022-07-23T13:50:10;29.10;85.90
6581;DHT22;3324;50.796;7.228;2022-07-23T13:52:36;29.20;82.00
6581;DHT22;3324;50.796;7.228;2022-07-23T13:55:04;29.10;83.60
6581;DHT22;3324;50.796;7.228;2022-07-23T13:57:31;29.10;80.70
6581;DHT22;3324;50.796;7.228;2022-07-23T13:59:56;29.00;84.00
6581;DHT22;3324;50.796;7.228;2022-07-23T14:02:22;28.90;87.30
6581;DHT22;3324;50.796;7.228;2022-07-23T14:04:48;29.00;85.40
6581;DHT22;3324;50.796;7.228;2022-07-23T14:07:14;28.90;86.90
6581;DHT22;3324;50.796;7.228;2022-07-23T14:09:40;28.90;83.50
6581;DHT22;3324;50.796;7.228;2022-07-23T14:12:06;28.80;87.50
6581;DHT22;3324;50.796;7.228;2022-07-23T14:14:32;28.80;85.20
6581;DHT22;3324;50.796;7.228;2022-07-23T14:16:58;28.60;91.10
6581;DHT22;3324;50.796;7.228;2022-07-23T14:19:23;28.40;89.50
6581;DHT22;3324;50.796;7.228;2022-07-23T14:21:49;28.30;89.00
6581;DHT22;3324;50.796;7.228;2022-07-23T14:24:15;28.20;85.40
6581;DHT22;3324;50.796;7.228;2022-07-23T14:26:41;28.30;89.00
6581;DHT22;3324;50.796;7.228;2022-07-23T14:29:07;28.20;91.30
6581;DHT22;3324;50.796;7.228;2022-07-23T14:31:33;28.20;92.40
6581;DHT22;3324;50.796;7.228;2022-07-23T14:33:58;28.20;91.40
6581;DHT22;3324;50.796;7.228;2022-07-23T14:36:25;28.20;90.30
6581;DHT22;3324;50.796;7.228;2022-07-23T14:38:51;28.30;87.50
6581;DHT22;3324;50.796;7.228;2022-07-23T14:41:17;28.10;89.30
6581;DHT22;3324;50.796;7.228;2022-07-23T14:43:43;28.10;92.90
6581;DHT22;3324;50.796;7.228;2022-07-23T14:46:09;28.00;89.30
6581;DHT22;3324;50.796;7.228;2022-07-23T14:48:35;27.80;91.10
6581;DHT22;3324;50.796;7.228;2022-07-23T14:51:01;27.90;91.40
6581;DHT22;3324;50.796;7.228;2022-07-23T14:53:27;27.80;89.20
6581;DHT22;3324;50.796;7.228;2022-07-23T14:55:52;27.80;91.60
6581;DHT22;3324;50.796;7.228;2022-07-23T14:58:18;27.50;90.10
6581;DHT22;3324;50.796;7.228;2022-07-23T15:00:44;27.50;88.10
6581;DHT22;3324;50.796;7.228;2022-07-23T15:03:09;27.60;91.10
6581;DHT22;3324;50.796;7.228;2022-07-23T15:05:35;27.50;90.80
6581;DHT22;3324;50.796;7.228;2022-07-23T15:08:00;27.40;90.60
6581;DHT22;3324;50.796;7.228;2022-07-23T15:10:26;27.40;91.00
6581;DHT22;3324;50.796;7.228;2022-07-23T15:12:51;27.40;90.50
6581;DHT22;3324;50.796;7.228;2022-07-23T15:15:17;27.30;90.60
6581;DHT22;3324;50.796;7.228;2022-07-23T15:17:43;27.20;91.60
6581;DHT22;3324;50.796;7.228;2022-07-23T15:20:09;27.20;93.40
6581;DHT22;3324;50.796;7.228;2022-07-23T15:22:35;27.20;91.40
6581;DHT22;3324;50.796;7.228;2022-07-23T15:25:00;27.30;92.50
6581;DHT22;3324;50.796;7.228;2022-07-23T15:27:27;27.30;91.30
6581;DHT22;3324;50.796;7.228;2022-07-23T15:29:53;27.40;92.50
6581;DHT22;3324;50.796;7.228;2022-07-23T15:32:18;27.40;91.40
6581;DHT22;3324;50.796;7.228;2022-07-23T15:34:44;27.40;91.50
6581;DHT22;3324;50.796;7.228;2022-07-23T15:37:09;27.40;90.90
6581;DHT22;3324;50.796;7.228;2022-07-23T15:39:35;27.30;92.90
6581;DHT22;3324;50.796;7.228;2022-07-23T15:42:02;27.10;92.40
6581;DHT22;3324;50.796;7.228;2022-07-23T15:44:28;27.00;90.50
6581;DHT22;3324;50.796;7.228;2022-07-23T15:46:54;26.70;90.60
6581;DHT22;3324;50.796;7.228;2022-07-23T15:49:21;26.80;91.20
6581;DHT22;3324;50.796;7.228;2022-07-23T15:51:47;26.80;92.30
6581;DHT22;3324;50.796;7.228;2022-07-23T15:54:12;26.70;92.90
6581;DHT22;3324;50.796;7.228;2022-07-23T15:56:38;26.60;93.20
6581;DHT22;3324;50.796;7.228;2022-07-23T15:59:04;26.60;92.30
6581;DHT22;3324;50.796;7.228;2022-07-23T16:01:30;26.60;94.20
6581;DHT22;3324;50.796;7.228;2022-07-23T16:03:56;26.50;92.90
6581;DHT22;3324;50.796;7.228;2022-07-23T16:06:24;26.60;94.00
6581;DHT22;3324;50.796;7.228;2022-07-23T16:08:51;26.60;90.40
6581;DHT22;3324;50.796;7.228;2022-07-23T16:11:17;26.50;92.10
6581;DHT22;3324;50.796;7.228;2022-07-23T16:13:43;26.50;91.40
6581;DHT22;3324;50.796;7.228;2022-07-23T16:16:09;26.50;91.10
6581;DHT22;3324;50.796;7.228;2022-07-23T16:18:36;26.60;94.40
6581;DHT22;3324;50.796;7.228;2022-07-23T16:21:02;26.50;93.50
6581;DHT22;3324;50.796;7.228;2022-07-23T16:23:28;26.40;93.40
6581;DHT22;3324;50.796;7.228;2022-07-23T16:25:54;26.30;93.10
6581;DHT22;3324;50.796;7.228;2022-07-23T16:28:19;26.30;93.40
6581;DHT22;3324;50.796;7.228;2022-07-23T16:30:45;26.20;93.60